Sioux Lookout Airport
CYXL : now visible

Airfield :











YOU CAN JOIN US ON...

 
LOGIN :

Register | Disclaimer

   EN    FR    IT 

 









Legend :    VFR   Marginal VFR   IFR   Intensive IFR   Very Intensive IFR
Visi :
Ceiling :
>= 8 km
>= 3000ft
5 to 8 km
1000 to 3000 ft
1500m to 5 km
500 to 1000 ft
800 to 1500m
200 to 500 ft
< 800m
< 200 ft
Symbols :   Thunderstorms  Fog  Heavy snow  Heavy precipitations  Wind > 20 kt






- Airport Elevation : 1258 ft
- IATA code : YXL


CYXL - Sioux Lookout

CURRENT METAR :
  • 182300Z 25008G15KT 200V270 15SM FEW050 SCT210 24/11 A3007 RMK CU1CI4 CU TR SLP188 DENSITY ALT 2400FT

EXPIRED METARs :
  • 182200Z 27009G16KT 240V300 15SM FEW052 BKN250 24/11 A3007 RMK CU1CI4 SLP191 DENSITY ALT 2400FT
  • 182100Z 28005G15KT 220V300 15SM FEW056 FEW250 24/12 A3008 RMK CU1CI2 CU TR SLP192 DENSITY ALT 2500FT
  • 182000Z 26007G18KT 200V280 15SM FEW052 FEW210 24/11 A3010 RMK CU1CI1 CU TR SLP199 DENSITY ALT 2400FT
  • 181900Z 28009KT 240V320 15SM FEW048 FEW250 23/11 A3010 RMK CU1CI1 SLP200 DENSITY ALT 2300FT

TAF TAF CYXL
Valid from the 18 at 20:00 until the 19 at 08:00 UTC


181940Z 1820/1908 28010KT P6SM FEW050
BECMG 1904/1906 23008KT RMK NXT FCST BY 190200Z
CZWG FIR / North America



MET'MAP, your aeronautical weather chart ! - Copyright ORBIFLY December 2007 - Disclaimer

ORBIFLY MET'MAP TEAM :

Programming & Development : Alexandra Zaïnal
Original concept : Baudouin d'Aumeries
Technical & hardware support : Manuel Goepfert
Assistance : Marc-Olivier Méhu




SOURCES & CREDITS :

   NOAA       Earth
Advisory